Nicoya, Costa Rica
Current Conditions -  °F | °C
As of 2:00 PM on Saturday 25 Oct 2014 (Local Time) from MRLB Reporting Station
Rain Showers Rain Showers  
Wind Chill: 86°   Ceiling: 25000
Heat Index: 95°   Visibility: 6mi
Dew Point: 75°   Wind: 13mph
Humidity: 70%   Direction: 270°W
Pressure: 29.8"   Gusts: NA
Location:  10.14°N, 85.46°W
Report Text: MRLB 252000Z 27011KT 9999 VCSH FEW025TCU BKN250 30/24 A2980
Loading
Personal Weather Stations






























Interactive Weather Map
Tropical Storm Tracking
New forecast layout! Learn more

10-Day Weather Forecast

Advertisements
Track Severe Weather on mobile